sensor_id;sensor_type;location;lat;lon;timestamp;P1;durP1;ratioP1;P2;durP2;ratioP2
11588;SDS011;5850;51.360;12.362;2023-06-14T00:02:26;3.10;;;2.80;;
11588;SDS011;5850;51.360;12.362;2023-06-14T00:04:55;3.60;;;2.57;;
11588;SDS011;5850;51.360;12.362;2023-06-14T00:07:35;3.33;;;2.57;;
11588;SDS011;5850;51.360;12.362;2023-06-14T00:10:12;4.97;;;2.87;;
11588;SDS011;5850;51.360;12.362;2023-06-14T00:12:42;4.90;;;2.53;;
11588;SDS011;5850;51.360;12.362;2023-06-14T00:15:10;2.90;;;2.70;;
11588;SDS011;5850;51.360;12.362;2023-06-14T00:17:38;2.80;;;2.40;;
11588;SDS011;5850;51.360;12.362;2023-06-14T00:20:06;2.87;;;2.67;;
11588;SDS011;5850;51.360;12.362;2023-06-14T00:22:36;3.77;;;2.80;;
11588;SDS011;5850;51.360;12.362;2023-06-14T00:25:05;5.43;;;3.10;;
11588;SDS011;5850;51.360;12.362;2023-06-14T00:27:53;2.83;;;2.63;;
11588;SDS011;5850;51.360;12.362;2023-06-14T00:30:22;3.03;;;2.83;;
11588;SDS011;5850;51.360;12.362;2023-06-14T00:32:51;3.10;;;2.50;;
11588;SDS011;5850;51.360;12.362;2023-06-14T00:35:20;4.00;;;2.77;;
11588;SDS011;5850;51.360;12.362;2023-06-14T00:37:49;4.30;;;2.90;;
11588;SDS011;5850;51.360;12.362;2023-06-14T00:40:17;3.70;;;3.00;;
11588;SDS011;5850;51.360;12.362;2023-06-14T00:42:45;7.60;;;3.10;;
11588;SDS011;5850;51.360;12.362;2023-06-14T00:45:14;3.20;;;2.90;;
11588;SDS011;5850;51.360;12.362;2023-06-14T00:47:42;5.03;;;2.83;;
11588;SDS011;5850;51.360;12.362;2023-06-14T00:50:11;6.63;;;3.13;;
11588;SDS011;5850;51.360;12.362;2023-06-14T00:52:40;5.43;;;2.90;;
11588;SDS011;5850;51.360;12.362;2023-06-14T00:55:08;3.77;;;2.73;;
11588;SDS011;5850;51.360;12.362;2023-06-14T00:57:36;3.53;;;2.80;;
11588;SDS011;5850;51.360;12.362;2023-06-14T01:00:06;4.50;;;3.00;;
11588;SDS011;5850;51.360;12.362;2023-06-14T01:02:36;3.30;;;3.00;;
11588;SDS011;5850;51.360;12.362;2023-06-14T01:05:06;4.77;;;2.90;;
11588;SDS011;5850;51.360;12.362;2023-06-14T01:13:33;8.30;;;3.03;;
11588;SDS011;5850;51.360;12.362;2023-06-14T01:16:04;3.77;;;3.00;;
11588;SDS011;5850;51.360;12.362;2023-06-14T01:18:34;3.70;;;2.80;;
11588;SDS011;5850;51.360;12.362;2023-06-14T01:21:19;5.57;;;2.80;;
11588;SDS011;5850;51.360;12.362;2023-06-14T01:23:48;3.80;;;2.63;;
11588;SDS011;5850;51.360;12.362;2023-06-14T01:26:20;4.03;;;3.17;;
11588;SDS011;5850;51.360;12.362;2023-06-14T01:28:49;3.43;;;3.10;;
11588;SDS011;5850;51.360;12.362;2023-06-14T01:31:19;3.10;;;2.80;;
11588;SDS011;5850;51.360;12.362;2023-06-14T01:33:49;3.83;;;2.87;;
11588;SDS011;5850;51.360;12.362;2023-06-14T01:36:18;4.20;;;3.03;;
11588;SDS011;5850;51.360;12.362;2023-06-14T01:38:47;3.77;;;3.30;;
11588;SDS011;5850;51.360;12.362;2023-06-14T01:41:20;3.90;;;3.50;;
11588;SDS011;5850;51.360;12.362;2023-06-14T01:43:48;5.53;;;3.60;;
11588;SDS011;5850;51.360;12.362;2023-06-14T01:46:17;4.47;;;3.50;;
11588;SDS011;5850;51.360;12.362;2023-06-14T01:48:46;4.27;;;3.13;;
11588;SDS011;5850;51.360;12.362;2023-06-14T01:51:15;8.73;;;4.10;;
11588;SDS011;5850;51.360;12.362;2023-06-14T01:53:43;5.67;;;3.30;;
11588;SDS011;5850;51.360;12.362;2023-06-14T01:56:13;4.37;;;3.33;;
11588;SDS011;5850;51.360;12.362;2023-06-14T01:58:41;4.70;;;3.37;;
11588;SDS011;5850;51.360;12.362;2023-06-14T02:01:09;3.70;;;3.20;;
11588;SDS011;5850;51.360;12.362;2023-06-14T02:03:40;3.57;;;3.00;;
11588;SDS011;5850;51.360;12.362;2023-06-14T02:06:08;6.00;;;3.30;;
11588;SDS011;5850;51.360;12.362;2023-06-14T02:08:36;5.67;;;3.07;;
11588;SDS011;5850;51.360;12.362;2023-06-14T02:11:04;3.00;;;2.70;;
11588;SDS011;5850;51.360;12.362;2023-06-14T02:13:33;4.23;;;2.80;;
11588;SDS011;5850;51.360;12.362;2023-06-14T02:16:01;3.47;;;2.53;;
11588;SDS011;5850;51.360;12.362;2023-06-14T02:18:29;3.00;;;2.80;;
11588;SDS011;5850;51.360;12.362;2023-06-14T02:20:58;5.17;;;2.67;;
11588;SDS011;5850;51.360;12.362;2023-06-14T02:23:26;4.63;;;2.63;;
11588;SDS011;5850;51.360;12.362;2023-06-14T02:25:54;3.40;;;2.77;;
11588;SDS011;5850;51.360;12.362;2023-06-14T02:28:22;3.20;;;2.90;;
11588;SDS011;5850;51.360;12.362;2023-06-14T02:30:52;3.20;;;2.97;;
11588;SDS011;5850;51.360;12.362;2023-06-14T02:33:20;3.10;;;2.30;;
11588;SDS011;5850;51.360;12.362;2023-06-14T02:35:48;2.80;;;2.60;;
11588;SDS011;5850;51.360;12.362;2023-06-14T02:38:16;3.90;;;2.93;;
11588;SDS011;5850;51.360;12.362;2023-06-14T02:40:45;3.23;;;2.90;;
11588;SDS011;5850;51.360;12.362;2023-06-14T02:43:13;3.20;;;2.90;;
11588;SDS011;5850;51.360;12.362;2023-06-14T02:45:43;3.43;;;3.13;;
11588;SDS011;5850;51.360;12.362;2023-06-14T02:48:12;3.00;;;2.80;;
11588;SDS011;5850;51.360;12.362;2023-06-14T02:50:40;4.40;;;3.27;;
11588;SDS011;5850;51.360;12.362;2023-06-14T02:53:08;4.33;;;3.40;;
11588;SDS011;5850;51.360;12.362;2023-06-14T02:55:38;3.13;;;2.83;;
11588;SDS011;5850;51.360;12.362;2023-06-14T02:58:06;3.43;;;3.13;;
11588;SDS011;5850;51.360;12.362;2023-06-14T03:00:35;2.97;;;2.77;;
11588;SDS011;5850;51.360;12.362;2023-06-14T03:03:04;3.10;;;2.70;;
11588;SDS011;5850;51.360;12.362;2023-06-14T03:05:41;3.23;;;2.80;;
11588;SDS011;5850;51.360;12.362;2023-06-14T03:08:15;3.13;;;2.83;;
11588;SDS011;5850;51.360;12.362;2023-06-14T03:10:46;3.63;;;2.90;;
11588;SDS011;5850;51.360;12.362;2023-06-14T03:13:14;5.93;;;2.93;;
11588;SDS011;5850;51.360;12.362;2023-06-14T03:15:43;3.73;;;2.90;;
11588;SDS011;5850;51.360;12.362;2023-06-14T03:18:11;3.50;;;3.20;;
11588;SDS011;5850;51.360;12.362;2023-06-14T03:20:41;4.43;;;3.20;;
11588;SDS011;5850;51.360;12.362;2023-06-14T03:23:12;4.63;;;2.83;;
11588;SDS011;5850;51.360;12.362;2023-06-14T03:25:42;2.97;;;2.67;;
11588;SDS011;5850;51.360;12.362;2023-06-14T03:28:11;3.67;;;3.37;;
11588;SDS011;5850;51.360;12.362;2023-06-14T03:30:39;3.27;;;3.03;;
11588;SDS011;5850;51.360;12.362;2023-06-14T03:33:10;4.30;;;2.83;;
11588;SDS011;5850;51.360;12.362;2023-06-14T03:35:38;3.97;;;3.57;;
11588;SDS011;5850;51.360;12.362;2023-06-14T03:38:07;4.33;;;2.87;;
11588;SDS011;5850;51.360;12.362;2023-06-14T03:40:36;3.03;;;2.77;;
11588;SDS011;5850;51.360;12.362;2023-06-14T03:43:04;3.30;;;3.00;;
11588;SDS011;5850;51.360;12.362;2023-06-14T03:45:34;4.60;;;3.53;;
11588;SDS011;5850;51.360;12.362;2023-06-14T03:48:05;4.07;;;3.10;;
11588;SDS011;5850;51.360;12.362;2023-06-14T03:50:35;3.17;;;2.87;;
11588;SDS011;5850;51.360;12.362;2023-06-14T03:53:04;3.03;;;2.73;;
11588;SDS011;5850;51.360;12.362;2023-06-14T03:55:33;3.40;;;3.03;;
11588;SDS011;5850;51.360;12.362;2023-06-14T03:58:21;3.10;;;2.73;;
11588;SDS011;5850;51.360;12.362;2023-06-14T04:00:49;3.63;;;2.70;;
11588;SDS011;5850;51.360;12.362;2023-06-14T04:03:18;4.63;;;3.23;;
11588;SDS011;5850;51.360;12.362;2023-06-14T04:05:51;4.27;;;3.23;;
11588;SDS011;5850;51.360;12.362;2023-06-14T04:08:23;4.77;;;3.13;;
11588;SDS011;5850;51.360;12.362;2023-06-14T04:10:51;2.90;;;2.70;;
11588;SDS011;5850;51.360;12.362;2023-06-14T04:13:19;3.20;;;2.90;;
11588;SDS011;5850;51.360;12.362;2023-06-14T04:15:47;3.63;;;3.30;;
11588;SDS011;5850;51.360;12.362;2023-06-14T04:18:16;3.60;;;3.30;;
11588;SDS011;5850;51.360;12.362;2023-06-14T04:20:49;6.43;;;3.27;;
11588;SDS011;5850;51.360;12.362;2023-06-14T04:23:17;4.70;;;3.63;;
11588;SDS011;5850;51.360;12.362;2023-06-14T04:25:45;4.33;;;2.70;;
11588;SDS011;5850;51.360;12.362;2023-06-14T04:28:15;4.60;;;3.43;;
11588;SDS011;5850;51.360;12.362;2023-06-14T04:30:46;5.17;;;3.60;;
11588;SDS011;5850;51.360;12.362;2023-06-14T04:33:14;3.70;;;3.30;;
11588;SDS011;5850;51.360;12.362;2023-06-14T04:35:44;3.70;;;3.40;;
11588;SDS011;5850;51.360;12.362;2023-06-14T04:38:13;4.60;;;3.80;;
11588;SDS011;5850;51.360;12.362;2023-06-14T04:40:42;19.03;;;7.13;;
11588;SDS011;5850;51.360;12.362;2023-06-14T04:43:12;5.83;;;3.70;;
11588;SDS011;5850;51.360;12.362;2023-06-14T04:45:43;4.03;;;3.73;;
11588;SDS011;5850;51.360;12.362;2023-06-14T04:48:13;4.87;;;3.50;;
11588;SDS011;5850;51.360;12.362;2023-06-14T04:50:41;6.67;;;3.83;;
11588;SDS011;5850;51.360;12.362;2023-06-14T04:53:09;6.90;;;3.90;;
11588;SDS011;5850;51.360;12.362;2023-06-14T04:55:38;4.07;;;3.30;;
11588;SDS011;5850;51.360;12.362;2023-06-14T04:58:07;3.83;;;3.20;;
11588;SDS011;5850;51.360;12.362;2023-06-14T05:00:35;5.80;;;4.13;;
11588;SDS011;5850;51.360;12.362;2023-06-14T05:03:03;4.13;;;3.67;;
11588;SDS011;5850;51.360;12.362;2023-06-14T05:05:33;3.63;;;3.33;;
11588;SDS011;5850;51.360;12.362;2023-06-14T05:08:01;4.03;;;3.70;;
11588;SDS011;5850;51.360;12.362;2023-06-14T05:10:29;5.27;;;3.67;;
11588;SDS011;5850;51.360;12.362;2023-06-14T05:12:57;3.90;;;3.60;;
11588;SDS011;5850;51.360;12.362;2023-06-14T05:15:25;9.43;;;4.07;;
11588;SDS011;5850;51.360;12.362;2023-06-14T05:17:58;4.13;;;3.67;;
11588;SDS011;5850;51.360;12.362;2023-06-14T05:20:26;6.17;;;4.73;;
11588;SDS011;5850;51.360;12.362;2023-06-14T05:22:54;4.80;;;4.20;;
11588;SDS011;5850;51.360;12.362;2023-06-14T05:25:26;4.77;;;4.17;;
11588;SDS011;5850;51.360;12.362;2023-06-14T05:27:54;5.90;;;4.30;;
11588;SDS011;5850;51.360;12.362;2023-06-14T05:30:22;5.00;;;4.03;;
11588;SDS011;5850;51.360;12.362;2023-06-14T05:32:51;4.47;;;3.83;;
11588;SDS011;5850;51.360;12.362;2023-06-14T05:35:21;5.57;;;3.87;;
11588;SDS011;5850;51.360;12.362;2023-06-14T05:37:52;6.70;;;4.80;;
11588;SDS011;5850;51.360;12.362;2023-06-14T05:40:21;5.23;;;4.10;;
11588;SDS011;5850;51.360;12.362;2023-06-14T05:42:49;6.00;;;4.83;;
11588;SDS011;5850;51.360;12.362;2023-06-14T05:45:17;6.10;;;4.40;;
11588;SDS011;5850;51.360;12.362;2023-06-14T05:47:45;5.27;;;4.13;;
11588;SDS011;5850;51.360;12.362;2023-06-14T05:50:14;5.63;;;4.53;;
11588;SDS011;5850;51.360;12.362;2023-06-14T05:52:42;5.47;;;4.60;;
11588;SDS011;5850;51.360;12.362;2023-06-14T05:55:12;10.87;;;4.63;;
11588;SDS011;5850;51.360;12.362;2023-06-14T05:57:41;5.37;;;4.87;;
11588;SDS011;5850;51.360;12.362;2023-06-14T06:00:09;5.30;;;4.80;;
11588;SDS011;5850;51.360;12.362;2023-06-14T06:02:40;8.90;;;4.70;;
11588;SDS011;5850;51.360;12.362;2023-06-14T06:05:11;5.00;;;4.50;;
11588;SDS011;5850;51.360;12.362;2023-06-14T06:07:40;5.43;;;4.70;;
11588;SDS011;5850;51.360;12.362;2023-06-14T06:10:10;4.93;;;4.33;;
11588;SDS011;5850;51.360;12.362;2023-06-14T06:12:38;6.00;;;4.40;;
11588;SDS011;5850;51.360;12.362;2023-06-14T06:15:06;8.20;;;4.73;;
11588;SDS011;5850;51.360;12.362;2023-06-14T06:17:38;4.97;;;4.47;;
11588;SDS011;5850;51.360;12.362;2023-06-14T06:20:21;5.17;;;4.67;;
11588;SDS011;5850;51.360;12.362;2023-06-14T06:22:55;7.40;;;4.50;;
11588;SDS011;5850;51.360;12.362;2023-06-14T06:25:24;5.50;;;4.20;;
11588;SDS011;5850;51.360;12.362;2023-06-14T06:27:54;5.20;;;4.70;;
11588;SDS011;5850;51.360;12.362;2023-06-14T06:30:29;5.60;;;4.50;;
11588;SDS011;5850;51.360;12.362;2023-06-14T06:32:57;5.53;;;4.00;;
11588;SDS011;5850;51.360;12.362;2023-06-14T06:35:25;4.93;;;4.43;;
11588;SDS011;5850;51.360;12.362;2023-06-14T06:37:55;4.70;;;3.77;;
11588;SDS011;5850;51.360;12.362;2023-06-14T06:40:23;5.17;;;4.40;;
11588;SDS011;5850;51.360;12.362;2023-06-14T06:42:51;5.03;;;4.53;;
11588;SDS011;5850;51.360;12.362;2023-06-14T06:45:20;6.47;;;4.50;;
11588;SDS011;5850;51.360;12.362;2023-06-14T06:47:51;5.10;;;4.70;;
11588;SDS011;5850;51.360;12.362;2023-06-14T06:50:19;5.50;;;4.33;;
11588;SDS011;5850;51.360;12.362;2023-06-14T06:52:49;4.83;;;3.83;;
11588;SDS011;5850;51.360;12.362;2023-06-14T06:55:17;4.97;;;4.20;;
11588;SDS011;5850;51.360;12.362;2023-06-14T06:57:45;4.73;;;3.77;;
11588;SDS011;5850;51.360;12.362;2023-06-14T07:00:14;6.57;;;4.00;;
11588;SDS011;5850;51.360;12.362;2023-06-14T07:02:44;6.10;;;4.10;;
11588;SDS011;5850;51.360;12.362;2023-06-14T07:05:13;5.30;;;3.70;;
11588;SDS011;5850;51.360;12.362;2023-06-14T07:07:42;8.27;;;4.60;;
11588;SDS011;5850;51.360;12.362;2023-06-14T07:10:10;3.87;;;3.57;;
11588;SDS011;5850;51.360;12.362;2023-06-14T07:12:39;6.27;;;3.67;;
11588;SDS011;5850;51.360;12.362;2023-06-14T07:15:12;4.90;;;3.90;;
11588;SDS011;5850;51.360;12.362;2023-06-14T07:17:41;4.43;;;4.03;;
11588;SDS011;5850;51.360;12.362;2023-06-14T07:20:09;4.47;;;3.80;;
11588;SDS011;5850;51.360;12.362;2023-06-14T07:22:40;4.67;;;4.13;;
11588;SDS011;5850;51.360;12.362;2023-06-14T07:25:10;4.27;;;3.87;;
11588;SDS011;5850;51.360;12.362;2023-06-14T07:27:42;4.40;;;2.97;;
11588;SDS011;5850;51.360;12.362;2023-06-14T07:30:11;3.80;;;3.50;;
11588;SDS011;5850;51.360;12.362;2023-06-14T07:32:39;4.43;;;3.73;;
11588;SDS011;5850;51.360;12.362;2023-06-14T07:35:07;4.60;;;3.13;;
11588;SDS011;5850;51.360;12.362;2023-06-14T07:37:36;4.87;;;3.80;;
11588;SDS011;5850;51.360;12.362;2023-06-14T07:40:04;3.97;;;3.57;;
11588;SDS011;5850;51.360;12.362;2023-06-14T07:42:35;3.70;;;3.40;;
11588;SDS011;5850;51.360;12.362;2023-06-14T07:45:03;3.67;;;3.37;;
11588;SDS011;5850;51.360;12.362;2023-06-14T07:47:32;3.17;;;2.87;;
11588;SDS011;5850;51.360;12.362;2023-06-14T07:50:01;3.43;;;3.13;;
11588;SDS011;5850;51.360;12.362;2023-06-14T07:52:29;3.50;;;3.20;;
11588;SDS011;5850;51.360;12.362;2023-06-14T07:54:58;3.13;;;2.83;;
11588;SDS011;5850;51.360;12.362;2023-06-14T07:57:26;4.83;;;3.53;;
11588;SDS011;5850;51.360;12.362;2023-06-14T07:59:54;3.73;;;3.30;;
11588;SDS011;5850;51.360;12.362;2023-06-14T08:02:23;4.80;;;3.53;;
11588;SDS011;5850;51.360;12.362;2023-06-14T08:04:51;4.23;;;3.80;;
11588;SDS011;5850;51.360;12.362;2023-06-14T08:07:20;7.27;;;3.67;;
11588;SDS011;5850;51.360;12.362;2023-06-14T08:09:48;5.83;;;3.63;;
11588;SDS011;5850;51.360;12.362;2023-06-14T08:12:16;4.83;;;3.00;;
11588;SDS011;5850;51.360;12.362;2023-06-14T08:14:45;3.63;;;3.17;;
11588;SDS011;5850;51.360;12.362;2023-06-14T08:17:26;3.97;;;3.50;;
11588;SDS011;5850;51.360;12.362;2023-06-14T08:19:55;3.43;;;2.77;;
11588;SDS011;5850;51.360;12.362;2023-06-14T08:22:23;6.80;;;6.10;;
11588;SDS011;5850;51.360;12.362;2023-06-14T08:24:54;4.70;;;3.47;;
11588;SDS011;5850;51.360;12.362;2023-06-14T08:27:22;4.27;;;3.87;;
11588;SDS011;5850;51.360;12.362;2023-06-14T08:29:50;3.80;;;3.20;;
11588;SDS011;5850;51.360;12.362;2023-06-14T08:32:18;5.50;;;3.20;;
11588;SDS011;5850;51.360;12.362;2023-06-14T08:34:47;3.87;;;3.50;;
11588;SDS011;5850;51.360;12.362;2023-06-14T08:37:30;7.93;;;3.70;;
11588;SDS011;5850;51.360;12.362;2023-06-14T08:39:59;4.77;;;3.20;;
11588;SDS011;5850;51.360;12.362;2023-06-14T08:42:32;3.93;;;3.10;;
11588;SDS011;5850;51.360;12.362;2023-06-14T08:45:00;3.40;;;3.10;;
11588;SDS011;5850;51.360;12.362;2023-06-14T08:47:28;10.10;;;3.77;;
11588;SDS011;5850;51.360;12.362;2023-06-14T08:50:07;5.67;;;4.43;;
11588;SDS011;5850;51.360;12.362;2023-06-14T08:52:54;5.53;;;3.97;;
11588;SDS011;5850;51.360;12.362;2023-06-14T08:55:26;4.50;;;4.10;;
11588;SDS011;5850;51.360;12.362;2023-06-14T08:57:57;4.03;;;3.70;;
11588;SDS011;5850;51.360;12.362;2023-06-14T09:00:28;4.20;;;3.80;;
11588;SDS011;5850;51.360;12.362;2023-06-14T09:02:57;3.97;;;3.67;;
11588;SDS011;5850;51.360;12.362;2023-06-14T09:05:25;4.53;;;3.07;;
11588;SDS011;5850;51.360;12.362;2023-06-14T09:07:55;3.37;;;3.13;;
11588;SDS011;5850;51.360;12.362;2023-06-14T09:10:31;3.83;;;3.53;;
11588;SDS011;5850;51.360;12.362;2023-06-14T09:13:01;5.40;;;3.73;;
11588;SDS011;5850;51.360;12.362;2023-06-14T09:15:30;3.93;;;3.57;;
11588;SDS011;5850;51.360;12.362;2023-06-14T09:17:58;3.67;;;3.13;;
11588;SDS011;5850;51.360;12.362;2023-06-14T09:20:30;5.00;;;3.63;;
11588;SDS011;5850;51.360;12.362;2023-06-14T09:22:58;3.77;;;3.37;;
11588;SDS011;5850;51.360;12.362;2023-06-14T09:25:27;3.70;;;3.40;;
11588;SDS011;5850;51.360;12.362;2023-06-14T09:28:06;4.53;;;3.47;;
11588;SDS011;5850;51.360;12.362;2023-06-14T09:30:36;3.80;;;3.40;;
11588;SDS011;5850;51.360;12.362;2023-06-14T09:33:05;3.47;;;2.90;;
11588;SDS011;5850;51.360;12.362;2023-06-14T09:35:34;3.10;;;2.80;;
11588;SDS011;5850;51.360;12.362;2023-06-14T09:38:02;5.23;;;2.83;;
11588;SDS011;5850;51.360;12.362;2023-06-14T09:40:33;3.93;;;2.73;;
11588;SDS011;5850;51.360;12.362;2023-06-14T09:43:04;3.20;;;2.90;;
11588;SDS011;5850;51.360;12.362;2023-06-14T09:45:34;4.97;;;2.57;;
11588;SDS011;5850;51.360;12.362;2023-06-14T09:48:06;2.93;;;2.63;;
11588;SDS011;5850;51.360;12.362;2023-06-14T09:50:35;3.20;;;2.90;;
11588;SDS011;5850;51.360;12.362;2023-06-14T09:53:06;3.33;;;2.90;;
11588;SDS011;5850;51.360;12.362;2023-06-14T09:55:37;3.33;;;2.93;;
11588;SDS011;5850;51.360;12.362;2023-06-14T09:58:07;3.93;;;2.90;;
11588;SDS011;5850;51.360;12.362;2023-06-14T10:00:38;3.20;;;2.67;;
11588;SDS011;5850;51.360;12.362;2023-06-14T10:03:13;3.33;;;3.03;;
11588;SDS011;5850;51.360;12.362;2023-06-14T10:05:49;3.70;;;2.83;;
11588;SDS011;5850;51.360;12.362;2023-06-14T10:08:19;3.47;;;3.17;;
11588;SDS011;5850;51.360;12.362;2023-06-14T10:10:52;5.90;;;3.07;;
11588;SDS011;5850;51.360;12.362;2023-06-14T10:13:23;2.73;;;2.53;;
11588;SDS011;5850;51.360;12.362;2023-06-14T10:16:07;3.10;;;2.80;;
11588;SDS011;5850;51.360;12.362;2023-06-14T10:18:42;3.53;;;2.67;;
11588;SDS011;5850;51.360;12.362;2023-06-14T10:21:59;3.07;;;2.87;;
11588;SDS011;5850;51.360;12.362;2023-06-14T10:24:35;2.60;;;2.40;;
11588;SDS011;5850;51.360;12.362;2023-06-14T10:27:09;4.77;;;2.87;;
11588;SDS011;5850;51.360;12.362;2023-06-14T10:32:22;3.13;;;2.67;;
11588;SDS011;5850;51.360;12.362;2023-06-14T10:34:58;4.03;;;2.70;;
11588;SDS011;5850;51.360;12.362;2023-06-14T10:37:28;3.07;;;2.77;;
11588;SDS011;5850;51.360;12.362;2023-06-14T10:39:56;3.47;;;2.60;;
11588;SDS011;5850;51.360;12.362;2023-06-14T10:42:31;2.00;;;1.80;;
11588;SDS011;5850;51.360;12.362;2023-06-14T10:45:00;2.80;;;2.60;;
11588;SDS011;5850;51.360;12.362;2023-06-14T10:47:29;3.03;;;2.73;;
11588;SDS011;5850;51.360;12.362;2023-06-14T10:50:05;3.87;;;2.60;;
11588;SDS011;5850;51.360;12.362;2023-06-14T10:52:41;3.00;;;2.53;;
11588;SDS011;5850;51.360;12.362;2023-06-14T10:55:13;4.33;;;2.47;;
11588;SDS011;5850;51.360;12.362;2023-06-14T10:57:48;3.87;;;2.67;;
11588;SDS011;5850;51.360;12.362;2023-06-14T11:00:21;3.07;;;2.80;;
11588;SDS011;5850;51.360;12.362;2023-06-14T11:06:23;5.47;;;2.80;;
11588;SDS011;5850;51.360;12.362;2023-06-14T11:11:56;3.33;;;2.97;;
11588;SDS011;5850;51.360;12.362;2023-06-14T11:14:25;8.63;;;3.00;;
11588;SDS011;5850;51.360;12.362;2023-06-14T11:16:53;3.10;;;2.80;;
11588;SDS011;5850;51.360;12.362;2023-06-14T11:19:22;3.13;;;2.83;;
11588;SDS011;5850;51.360;12.362;2023-06-14T11:21:51;3.50;;;3.20;;
11588;SDS011;5850;51.360;12.362;2023-06-14T11:24:19;3.17;;;2.87;;
11588;SDS011;5850;51.360;12.362;2023-06-14T11:26:47;5.30;;;2.83;;
11588;SDS011;5850;51.360;12.362;2023-06-14T11:29:16;3.07;;;2.70;;
11588;SDS011;5850;51.360;12.362;2023-06-14T11:31:44;3.50;;;2.90;;
11588;SDS011;5850;51.360;12.362;2023-06-14T11:34:13;3.30;;;2.80;;
11588;SDS011;5850;51.360;12.362;2023-06-14T11:36:42;3.97;;;2.90;;
11588;SDS011;5850;51.360;12.362;2023-06-14T11:39:12;2.70;;;2.50;;
11588;SDS011;5850;51.360;12.362;2023-06-14T11:41:44;2.73;;;2.53;;
11588;SDS011;5850;51.360;12.362;2023-06-14T11:44:12;4.43;;;2.87;;
11588;SDS011;5850;51.360;12.362;2023-06-14T11:46:40;2.67;;;2.47;;
11588;SDS011;5850;51.360;12.362;2023-06-14T11:49:09;3.10;;;2.80;;
11588;SDS011;5850;51.360;12.362;2023-06-14T11:51:37;3.13;;;2.57;;
11588;SDS011;5850;51.360;12.362;2023-06-14T11:54:06;4.07;;;2.60;;
11588;SDS011;5850;51.360;12.362;2023-06-14T11:56:36;4.43;;;2.60;;
11588;SDS011;5850;51.360;12.362;2023-06-14T11:59:05;2.80;;;2.60;;
11588;SDS011;5850;51.360;12.362;2023-06-14T12:01:35;3.37;;;2.40;;
11588;SDS011;5850;51.360;12.362;2023-06-14T12:04:05;3.77;;;2.50;;
11588;SDS011;5850;51.360;12.362;2023-06-14T12:06:34;3.10;;;2.80;;
11588;SDS011;5850;51.360;12.362;2023-06-14T12:09:06;2.60;;;2.40;;
11588;SDS011;5850;51.360;12.362;2023-06-14T12:11:39;4.03;;;2.67;;
11588;SDS011;5850;51.360;12.362;2023-06-14T12:14:08;3.00;;;2.80;;
11588;SDS011;5850;51.360;12.362;2023-06-14T12:16:38;3.10;;;2.70;;
11588;SDS011;5850;51.360;12.362;2023-06-14T12:19:17;4.60;;;2.83;;
11588;SDS011;5850;51.360;12.362;2023-06-14T12:21:46;3.00;;;2.67;;
11588;SDS011;5850;51.360;12.362;2023-06-14T12:24:15;3.23;;;2.60;;
11588;SDS011;5850;51.360;12.362;2023-06-14T12:26:44;3.97;;;2.83;;
11588;SDS011;5850;51.360;12.362;2023-06-14T12:29:13;3.63;;;3.33;;
11588;SDS011;5850;51.360;12.362;2023-06-14T12:31:41;3.70;;;3.40;;
11588;SDS011;5850;51.360;12.362;2023-06-14T12:34:09;7.50;;;3.60;;
11588;SDS011;5850;51.360;12.362;2023-06-14T12:36:38;4.23;;;2.83;;
11588;SDS011;5850;51.360;12.362;2023-06-14T12:39:11;3.47;;;3.03;;
11588;SDS011;5850;51.360;12.362;2023-06-14T12:41:39;3.10;;;2.80;;
11588;SDS011;5850;51.360;12.362;2023-06-14T12:44:09;3.53;;;3.20;;
11588;SDS011;5850;51.360;12.362;2023-06-14T12:46:39;3.13;;;2.90;;
11588;SDS011;5850;51.360;12.362;2023-06-14T12:49:08;3.30;;;3.00;;
11588;SDS011;5850;51.360;12.362;2023-06-14T12:51:38;3.17;;;2.90;;
11588;SDS011;5850;51.360;12.362;2023-06-14T12:54:07;5.13;;;2.90;;
11588;SDS011;5850;51.360;12.362;2023-06-14T12:56:35;3.13;;;2.83;;
11588;SDS011;5850;51.360;12.362;2023-06-14T12:59:03;4.53;;;3.20;;
11588;SDS011;5850;51.360;12.362;2023-06-14T13:01:33;5.23;;;3.07;;
11588;SDS011;5850;51.360;12.362;2023-06-14T13:04:01;4.60;;;3.50;;
11588;SDS011;5850;51.360;12.362;2023-06-14T13:06:30;4.53;;;3.20;;
11588;SDS011;5850;51.360;12.362;2023-06-14T13:08:58;3.67;;;3.33;;
11588;SDS011;5850;51.360;12.362;2023-06-14T13:11:28;3.53;;;3.20;;
11588;SDS011;5850;51.360;12.362;2023-06-14T13:13:56;5.33;;;3.43;;
11588;SDS011;5850;51.360;12.362;2023-06-14T13:16:27;5.27;;;3.50;;
11588;SDS011;5850;51.360;12.362;2023-06-14T13:18:55;5.33;;;3.50;;
11588;SDS011;5850;51.360;12.362;2023-06-14T13:21:24;3.27;;;3.03;;
11588;SDS011;5850;51.360;12.362;2023-06-14T13:23:52;6.07;;;3.40;;
11588;SDS011;5850;51.360;12.362;2023-06-14T13:26:21;6.83;;;3.33;;
11588;SDS011;5850;51.360;12.362;2023-06-14T13:28:49;3.53;;;3.17;;
11588;SDS011;5850;51.360;12.362;2023-06-14T13:31:18;5.27;;;3.87;;
11588;SDS011;5850;51.360;12.362;2023-06-14T13:33:46;3.80;;;3.40;;
11588;SDS011;5850;51.360;12.362;2023-06-14T13:36:15;3.73;;;3.33;;
11588;SDS011;5850;51.360;12.362;2023-06-14T13:38:43;9.57;;;3.70;;
11588;SDS011;5850;51.360;12.362;2023-06-14T13:41:14;2.93;;;2.73;;
11588;SDS011;5850;51.360;12.362;2023-06-14T13:43:42;4.77;;;3.70;;
11588;SDS011;5850;51.360;12.362;2023-06-14T13:46:11;4.10;;;3.10;;
11588;SDS011;5850;51.360;12.362;2023-06-14T13:48:39;4.97;;;3.10;;
11588;SDS011;5850;51.360;12.362;2023-06-14T13:51:07;6.77;;;3.63;;
11588;SDS011;5850;51.360;12.362;2023-06-14T13:53:37;5.83;;;3.33;;
11588;SDS011;5850;51.360;12.362;2023-06-14T13:56:05;3.97;;;3.10;;
11588;SDS011;5850;51.360;12.362;2023-06-14T13:58:34;4.37;;;3.80;;
11588;SDS011;5850;51.360;12.362;2023-06-14T14:01:02;3.70;;;3.10;;
11588;SDS011;5850;51.360;12.362;2023-06-14T14:03:31;3.97;;;3.40;;
11588;SDS011;5850;51.360;12.362;2023-06-14T14:06:00;3.60;;;3.13;;
11588;SDS011;5850;51.360;12.362;2023-06-14T14:08:29;4.00;;;3.20;;
11588;SDS011;5850;51.360;12.362;2023-06-14T14:10:58;6.63;;;3.60;;
11588;SDS011;5850;51.360;12.362;2023-06-14T14:13:27;6.20;;;3.13;;
11588;SDS011;5850;51.360;12.362;2023-06-14T14:15:55;3.20;;;2.90;;
11588;SDS011;5850;51.360;12.362;2023-06-14T14:18:24;4.70;;;3.43;;
11588;SDS011;5850;51.360;12.362;2023-06-14T14:20:57;3.80;;;3.50;;
11588;SDS011;5850;51.360;12.362;2023-06-14T14:23:26;4.53;;;3.23;;
11588;SDS011;5850;51.360;12.362;2023-06-14T14:25:55;4.87;;;3.33;;
11588;SDS011;5850;51.360;12.362;2023-06-14T14:28:23;4.00;;;3.10;;
11588;SDS011;5850;51.360;12.362;2023-06-14T14:30:51;3.33;;;3.03;;
11588;SDS011;5850;51.360;12.362;2023-06-14T14:33:20;6.83;;;3.20;;
11588;SDS011;5850;51.360;12.362;2023-06-14T14:35:48;3.50;;;3.20;;
11588;SDS011;5850;51.360;12.362;2023-06-14T14:38:16;7.37;;;3.50;;
11588;SDS011;5850;51.360;12.362;2023-06-14T14:40:45;4.10;;;2.93;;
11588;SDS011;5850;51.360;12.362;2023-06-14T14:43:13;3.53;;;3.23;;
11588;SDS011;5850;51.360;12.362;2023-06-14T14:45:41;6.03;;;3.10;;
11588;SDS011;5850;51.360;12.362;2023-06-14T14:48:09;4.53;;;3.03;;
11588;SDS011;5850;51.360;12.362;2023-06-14T14:50:37;3.97;;;2.93;;
11588;SDS011;5850;51.360;12.362;2023-06-14T14:53:06;2.80;;;2.60;;
11588;SDS011;5850;51.360;12.362;2023-06-14T14:55:34;2.70;;;2.30;;
11588;SDS011;5850;51.360;12.362;2023-06-14T14:58:03;2.70;;;2.50;;
11588;SDS011;5850;51.360;12.362;2023-06-14T15:00:33;3.67;;;2.90;;
11588;SDS011;5850;51.360;12.362;2023-06-14T15:03:02;4.63;;;2.80;;
11588;SDS011;5850;51.360;12.362;2023-06-14T15:05:30;3.23;;;2.20;;
11588;SDS011;5850;51.360;12.362;2023-06-14T15:07:58;5.00;;;2.53;;
11588;SDS011;5850;51.360;12.362;2023-06-14T15:10:27;3.23;;;2.57;;
11588;SDS011;5850;51.360;12.362;2023-06-14T15:12:58;3.03;;;2.70;;
11588;SDS011;5850;51.360;12.362;2023-06-14T15:15:26;3.27;;;1.93;;
11588;SDS011;5850;51.360;12.362;2023-06-14T15:17:55;3.40;;;2.40;;
11588;SDS011;5850;51.360;12.362;2023-06-14T15:20:23;3.37;;;3.00;;